メインページ
METAR-TAF:

METAR-TAF

空港 :

カトマンズ, ネパール

トリブバン国際空港

緯度: 27-42N, 経度: 085-22E, 海抜: 1337m

現時点の気象観測

当レポートは15分前の16:20(UTC)に作成
変向風 2kt
気温 22°C
湿度 88%
気圧 1011 hPa
視程: 7000m
高度1500ftの雲はほとんどない
高度3000ftの雲は散在している

METAR: VNKT 221620Z VRB02KT 7000 FEW015 SCT030 22/20 Q1011 NOSIG

時間: 22:20 (16:35 UTC)

予報

当レポートは5時間35分前の11:00(UTC)に作成
予報は22日の 12時(UTC)から 23日の 12時(UTC)まで有効
西の風 5kt
視程: 8000m
高度2000ftの雲はほとんどない
高度10000ftの雲は散在している
確率 40% :
22日の 12時(UTC)から 22日の 18時(UTC)まで一時的に
変向風 10kt
視程: 4000m
高度2500ftの雲はほとんどない, 積乱雲.
高度9000ftの曇り
弱いにわか雨
22日の 14時(UTC)から 22日の 15時(UTC)まで徐々に
変向風 2kt
視程: 6000m
高度2000ftの雲はほとんどない
高度3000ftの雲は散在している
高度10000ftの千切れ雲あり
23日の 00時(UTC)から 23日の 02時(UTC)まで徐々に
の風 kt
視程: 4000m
高度1500ftの雲はほとんどない
高度2500ftの雲は散在している
23日の 04時(UTC)から 23日の 05時(UTC)まで徐々に
南東の風 5kt
視程: 6000m
高度2000ftの雲はほとんどない
23日の 07時(UTC)から 23日の 09時(UTC)まで徐々に
南西の風 8kt
視程: 8000m
高度2500ftの雲はほとんどない
高度10000ftの雲は散在している

TAF: VNKT 221100Z 2212/2312 26005KT 8000 FEW020 SCT100 PROB40 TEMPO 2212/2218 VRB10KT 4000 -SHRA FEW025CB OVC090 BECMG 2214/2215 VRB02KT 6000 FEW020 SCT030 BKN100 BECMG 2300/2302 00000KT 4000 BR FEW015 SCT025 BECMG 2304/2305 14005KT 6000 FEW020 BECMG 2307/2309 22008KT 8000 FEW025 SCT100

4,000以上の空港の気象観測と天気予報(METAR報とTAF報)

利用可能な観測所は地図上に黄色い丸と赤い丸で示す。

丸の上にカーソルを重ねると観測所名を参照できる。

次にクリックすると気象観測と天気予報を参照できる。

マップの切り替え:黒色「×」印の緑ボタンをクリックして拡大、「-」印の緑ボタンをクリックして縮小、緑色の三角印をクリックして隣りの地図に切り替え


METAR-TAF: